Erly, Pennsylvania
Current Conditions -  °F | °C
As of 5:56 AM on Sunday 21 Dec 2014 (Local Time) from KCXY Reporting Station
Overcast Overcast  
Wind Chill: 28°   Ceiling: 10000
Heat Index: 28°   Visibility: 7mi
Dew Point: 22°   Wind: 0mph
Humidity: 78%   Direction: NA
Pressure: 30.31"   Gusts: NA
Location:  40.3632°N, 77.2671°W
Report Text: KCXY 211056Z AUTO 00000KT 7SM OVC100 M02/M06 A3031 RMK AO2 SLP269 T10221056
Loading
Personal Weather Stations






























Interactive Weather Map New forecast layout! Learn more

10-Day Weather Forecast

Advertisements
Track Severe Weather on mobile